DLH2FF EDDF-LIMC
Flight info
| Callsign | DLH2FF |
|---|---|
| Flight time | 0h 51m |
| Altitude | 33000 |
| Route | ANEKI2L/18 ANEKI Y163 NATOR DCT DITON DCT BASGO Z424 RIXUV |
| Aircraft | A320/M-SDE2E3FGIJ1LORWXYZ/HB1 |
Departure
| Time | 2026-05-07 13:54 |
|---|---|
| Airport | Frankfurt Main Airport (EDDF) |
Arrival
| Time | 2026-05-07 14:45 |
|---|---|
| Airport | Milan Malpensa International Airport (LIMC) |
| Time | Latitude | Longitude | Altitude | Speed | Heading |
|---|---|---|---|---|---|
| 2026-05-07 13:26 | 50.04738 | 8.56364 | 356 ft | 0 kts | 342° |
| 2026-05-07 13:27 | 50.04736 | 8.56364 | 356 ft | 0 kts | 342° |
| 2026-05-07 13:39 | 50.04721 | 8.56372 | 362 ft | 4 kts | 338° |
| 2026-05-07 13:39 | 50.04698 | 8.56391 | 361 ft | 4 kts | 314° |
| 2026-05-07 13:39 | 50.04688 | 8.56422 | 363 ft | 4 kts | 254° |
| 2026-05-07 13:40 | 50.04685 | 8.56414 | 359 ft | 4 kts | 250° |
| 2026-05-07 13:40 | 50.04676 | 8.56375 | 356 ft | 4 kts | 249° |
| 2026-05-07 13:40 | 50.04669 | 8.56346 | 358 ft | 0 kts | 249° |
| 2026-05-07 13:43 | 50.04668 | 8.56345 | 358 ft | 1 kts | 249° |
| 2026-05-07 13:43 | 50.04645 | 8.56239 | 358 ft | 14 kts | 250° |
| 2026-05-07 13:43 | 50.04617 | 8.56128 | 357 ft | 10 kts | 248° |
| 2026-05-07 13:43 | 50.04595 | 8.56033 | 362 ft | 6 kts | 250° |
| 2026-05-07 13:44 | 50.04580 | 8.55983 | 357 ft | 5 kts | 244° |
| 2026-05-07 13:44 | 50.04539 | 8.55931 | 356 ft | 9 kts | 200° |
| 2026-05-07 13:44 | 50.04462 | 8.55896 | 357 ft | 12 kts | 192° |
| 2026-05-07 13:44 | 50.04368 | 8.55916 | 358 ft | 15 kts | 161° |
| 2026-05-07 13:45 | 50.04281 | 8.55959 | 361 ft | 13 kts | 176° |
| 2026-05-07 13:45 | 50.04219 | 8.55859 | 360 ft | 15 kts | 249° |
| 2026-05-07 13:45 | 50.04177 | 8.55693 | 356 ft | 18 kts | 248° |
| 2026-05-07 13:45 | 50.04136 | 8.55518 | 358 ft | 16 kts | 247° |
| 2026-05-07 13:46 | 50.04098 | 8.55349 | 354 ft | 17 kts | 249° |
| 2026-05-07 13:46 | 50.04056 | 8.55171 | 355 ft | 18 kts | 250° |
| 2026-05-07 13:46 | 50.04025 | 8.55045 | 356 ft | 19 kts | 249° |
| 2026-05-07 13:46 | 50.03975 | 8.54837 | 357 ft | 22 kts | 249° |
| 2026-05-07 13:47 | 50.03900 | 8.54521 | 351 ft | 25 kts | 249° |
| 2026-05-07 13:47 | 50.03862 | 8.54374 | 353 ft | 20 kts | 241° |
| 2026-05-07 13:47 | 50.03790 | 8.54176 | 351 ft | 22 kts | 251° |
| 2026-05-07 13:47 | 50.03739 | 8.53962 | 345 ft | 21 kts | 250° |
| 2026-05-07 13:48 | 50.03687 | 8.53742 | 350 ft | 23 kts | 250° |
| 2026-05-07 13:48 | 50.03627 | 8.53505 | 339 ft | 21 kts | 248° |
| 2026-05-07 13:48 | 50.03575 | 8.53295 | 335 ft | 21 kts | 250° |
| 2026-05-07 13:48 | 50.03526 | 8.53090 | 335 ft | 20 kts | 249° |
| 2026-05-07 13:49 | 50.03476 | 8.52884 | 335 ft | 21 kts | 249° |
| 2026-05-07 13:49 | 50.03438 | 8.52750 | 333 ft | 1 kts | 249° |
| 2026-05-07 13:49 | 50.03436 | 8.52743 | 333 ft | 1 kts | 248° |
| 2026-05-07 13:49 | 50.03435 | 8.52737 | 333 ft | 1 kts | 248° |
| 2026-05-07 13:50 | 50.03411 | 8.52644 | 334 ft | 12 kts | 256° |
| 2026-05-07 13:50 | 50.03353 | 8.52594 | 335 ft | 12 kts | 177° |
| 2026-05-07 13:50 | 50.03347 | 8.52595 | 335 ft | 0 kts | 176° |
| 2026-05-07 13:53 | 50.03297 | 8.52598 | 332 ft | 36 kts | 178° |
| 2026-05-07 13:53 | 50.02796 | 8.52599 | 331 ft | 105 kts | 180° |
| 2026-05-07 13:53 | 50.01898 | 8.52602 | 337 ft | 155 kts | 180° |
| 2026-05-07 13:53 | 50.00723 | 8.52608 | 705 ft | 175 kts | 180° |
| 2026-05-07 13:54 | 49.99477 | 8.52613 | 1302 ft | 188 kts | 181° |
| 2026-05-07 13:54 | 49.98114 | 8.52655 | 1760 ft | 207 kts | 178° |
| 2026-05-07 13:54 | 49.96603 | 8.52775 | 2155 ft | 227 kts | 178° |
| 2026-05-07 13:54 | 49.94998 | 8.52912 | 2940 ft | 233 kts | 178° |
| 2026-05-07 13:55 | 49.93365 | 8.53050 | 3703 ft | 238 kts | 178° |
| 2026-05-07 13:55 | 49.91712 | 8.53184 | 3926 ft | 238 kts | 178° |
| 2026-05-07 13:55 | 49.90061 | 8.53313 | 3997 ft | 237 kts | 179° |
| 2026-05-07 13:55 | 49.88412 | 8.53433 | 4037 ft | 239 kts | 179° |
| 2026-05-07 13:56 | 49.86736 | 8.53552 | 4834 ft | 241 kts | 179° |
| 2026-05-07 13:56 | 49.85062 | 8.53668 | 5783 ft | 242 kts | 179° |
| 2026-05-07 13:56 | 49.83372 | 8.53783 | 6659 ft | 245 kts | 179° |
| 2026-05-07 13:56 | 49.81663 | 8.53900 | 7493 ft | 248 kts | 179° |
| 2026-05-07 13:57 | 49.79929 | 8.54021 | 8346 ft | 251 kts | 179° |
| 2026-05-07 13:57 | 49.78173 | 8.54126 | 9212 ft | 254 kts | 183° |
| 2026-05-07 13:57 | 49.76354 | 8.53930 | 9743 ft | 273 kts | 186° |
| 2026-05-07 13:57 | 49.74391 | 8.53666 | 10195 ft | 293 kts | 187° |
| 2026-05-07 13:58 | 49.72285 | 8.53375 | 10503 ft | 316 kts | 186° |
| 2026-05-07 13:58 | 49.70041 | 8.53067 | 11035 ft | 329 kts | 186° |
| 2026-05-07 13:58 | 49.67734 | 8.52757 | 11785 ft | 335 kts | 186° |
| 2026-05-07 13:58 | 49.65409 | 8.52449 | 12557 ft | 339 kts | 186° |
| 2026-05-07 13:59 | 49.63032 | 8.52137 | 13346 ft | 343 kts | 186° |
| 2026-05-07 13:59 | 49.60637 | 8.51822 | 14073 ft | 348 kts | 186° |
| 2026-05-07 13:59 | 49.58210 | 8.51504 | 14760 ft | 352 kts | 186° |
| 2026-05-07 13:59 | 49.55763 | 8.51184 | 15467 ft | 354 kts | 186° |
| 2026-05-07 14:00 | 49.53298 | 8.50860 | 16165 ft | 357 kts | 186° |
| 2026-05-07 14:00 | 49.50817 | 8.50538 | 16865 ft | 360 kts | 186° |
| 2026-05-07 14:00 | 49.48311 | 8.50213 | 17562 ft | 363 kts | 187° |
| 2026-05-07 14:00 | 49.45785 | 8.49882 | 18248 ft | 366 kts | 187° |
| 2026-05-07 14:01 | 49.43238 | 8.49546 | 18862 ft | 369 kts | 187° |
| 2026-05-07 14:01 | 49.40672 | 8.49210 | 19451 ft | 371 kts | 187° |
| 2026-05-07 14:01 | 49.38091 | 8.48874 | 20046 ft | 374 kts | 187° |
| 2026-05-07 14:01 | 49.35487 | 8.48535 | 20633 ft | 377 kts | 187° |
| 2026-05-07 14:02 | 49.32866 | 8.48190 | 21205 ft | 379 kts | 187° |
| 2026-05-07 14:02 | 49.30227 | 8.47843 | 21774 ft | 382 kts | 187° |
| 2026-05-07 14:02 | 49.27571 | 8.47496 | 22315 ft | 385 kts | 187° |
| 2026-05-07 14:02 | 49.24895 | 8.47150 | 22861 ft | 388 kts | 187° |
| 2026-05-07 14:03 | 49.22196 | 8.46803 | 23412 ft | 390 kts | 187° |
| 2026-05-07 14:03 | 49.19479 | 8.46454 | 23880 ft | 393 kts | 187° |
| 2026-05-07 14:03 | 49.16753 | 8.46102 | 24331 ft | 395 kts | 187° |
| 2026-05-07 14:03 | 49.14005 | 8.45745 | 24774 ft | 397 kts | 187° |
| 2026-05-07 14:04 | 49.11246 | 8.45385 | 25201 ft | 399 kts | 187° |
| 2026-05-07 14:04 | 49.08468 | 8.45023 | 25626 ft | 402 kts | 187° |
| 2026-05-07 14:04 | 49.05694 | 8.44508 | 26047 ft | 402 kts | 194° |
| 2026-05-07 14:04 | 49.02964 | 8.43563 | 26463 ft | 404 kts | 195° |
| 2026-05-07 14:05 | 49.00215 | 8.42600 | 26882 ft | 406 kts | 195° |
| 2026-05-07 14:05 | 48.97455 | 8.41640 | 27292 ft | 408 kts | 195° |
| 2026-05-07 14:05 | 48.94680 | 8.40676 | 27692 ft | 410 kts | 195° |
| 2026-05-07 14:05 | 48.91924 | 8.39719 | 28091 ft | 413 kts | 195° |
| 2026-05-07 14:06 | 48.89081 | 8.38735 | 28499 ft | 415 kts | 195° |
| 2026-05-07 14:06 | 48.86293 | 8.37769 | 28885 ft | 417 kts | 195° |
| 2026-05-07 14:06 | 48.83454 | 8.36788 | 29273 ft | 420 kts | 195° |
| 2026-05-07 14:06 | 48.80605 | 8.35803 | 29656 ft | 422 kts | 195° |
| 2026-05-07 14:07 | 48.77732 | 8.34808 | 30030 ft | 424 kts | 195° |
| 2026-05-07 14:07 | 48.74851 | 8.33779 | 30355 ft | 426 kts | 195° |
| 2026-05-07 14:07 | 48.71965 | 8.32722 | 30632 ft | 428 kts | 196° |
| 2026-05-07 14:07 | 48.69062 | 8.31645 | 30911 ft | 431 kts | 196° |
| 2026-05-07 14:08 | 48.66142 | 8.30559 | 31178 ft | 433 kts | 196° |
| 2026-05-07 14:08 | 48.63203 | 8.29476 | 31445 ft | 436 kts | 196° |
| 2026-05-07 14:08 | 48.60254 | 8.28399 | 31746 ft | 437 kts | 195° |
| 2026-05-07 14:08 | 48.57297 | 8.27329 | 32122 ft | 437 kts | 195° |
| 2026-05-07 14:09 | 48.54347 | 8.26266 | 32490 ft | 437 kts | 195° |
| 2026-05-07 14:09 | 48.51378 | 8.25259 | 32845 ft | 438 kts | 191° |
| 2026-05-07 14:09 | 48.48334 | 8.24851 | 33025 ft | 440 kts | 182° |
| 2026-05-07 14:10 | 48.42404 | 8.25964 | 33046 ft | 424 kts | 173° |
| 2026-05-07 14:10 | 48.36609 | 8.27392 | 33047 ft | 421 kts | 173° |
| 2026-05-07 14:11 | 48.30826 | 8.28795 | 33044 ft | 420 kts | 173° |
| 2026-05-07 14:11 | 48.24950 | 8.30208 | 33043 ft | 437 kts | 173° |
| 2026-05-07 14:12 | 48.18824 | 8.31688 | 33041 ft | 453 kts | 173° |
| 2026-05-07 14:12 | 48.12524 | 8.32210 | 33029 ft | 454 kts | 182° |
| 2026-05-07 14:13 | 48.06202 | 8.32287 | 33043 ft | 454 kts | 182° |
| 2026-05-07 14:13 | 47.99882 | 8.32359 | 33043 ft | 455 kts | 182° |
| 2026-05-07 14:14 | 47.93552 | 8.32455 | 33044 ft | 455 kts | 182° |
| 2026-05-07 14:14 | 47.87220 | 8.32551 | 33034 ft | 455 kts | 182° |
| 2026-05-07 14:15 | 47.80897 | 8.32624 | 33032 ft | 454 kts | 182° |
| 2026-05-07 14:15 | 47.74583 | 8.32711 | 33025 ft | 454 kts | 182° |
| 2026-05-07 14:16 | 47.68264 | 8.32811 | 33011 ft | 454 kts | 182° |
| 2026-05-07 14:16 | 47.61941 | 8.32910 | 33011 ft | 454 kts | 182° |
| 2026-05-07 14:17 | 47.55630 | 8.32990 | 33009 ft | 454 kts | 182° |
| 2026-05-07 14:17 | 47.49315 | 8.33067 | 32991 ft | 454 kts | 182° |
| 2026-05-07 14:18 | 47.43006 | 8.33162 | 33000 ft | 453 kts | 183° |
| 2026-05-07 14:18 | 47.36692 | 8.33241 | 33007 ft | 454 kts | 183° |
| 2026-05-07 14:19 | 47.30386 | 8.33323 | 33003 ft | 454 kts | 182° |
| 2026-05-07 14:19 | 47.24069 | 8.33891 | 32994 ft | 456 kts | 178° |
| 2026-05-07 14:20 | 47.17755 | 8.34917 | 32876 ft | 458 kts | 177° |
| 2026-05-07 14:20 | 47.14599 | 8.35446 | 32265 ft | 456 kts | 177° |
| 2026-05-07 14:20 | 47.11444 | 8.35941 | 31436 ft | 456 kts | 177° |
| 2026-05-07 14:20 | 47.08327 | 8.36389 | 30641 ft | 456 kts | 177° |
| 2026-05-07 14:21 | 47.05126 | 8.36816 | 29708 ft | 457 kts | 178° |
| 2026-05-07 14:21 | 47.01956 | 8.37222 | 28648 ft | 458 kts | 178° |
| 2026-05-07 14:21 | 46.98818 | 8.37621 | 27566 ft | 460 kts | 178° |
| 2026-05-07 14:21 | 46.95619 | 8.38039 | 26437 ft | 463 kts | 177° |
| 2026-05-07 14:22 | 46.92403 | 8.38474 | 25299 ft | 465 kts | 177° |
| 2026-05-07 14:22 | 46.89202 | 8.38916 | 24491 ft | 459 kts | 176° |
| 2026-05-07 14:22 | 46.86039 | 8.39358 | 23699 ft | 454 kts | 176° |
| 2026-05-07 14:22 | 46.82909 | 8.39789 | 22868 ft | 449 kts | 176° |
| 2026-05-07 14:23 | 46.79816 | 8.40211 | 22074 ft | 445 kts | 176° |
| 2026-05-07 14:23 | 46.76750 | 8.40627 | 21511 ft | 441 kts | 176° |
| 2026-05-07 14:23 | 46.73692 | 8.41035 | 21268 ft | 441 kts | 176° |
| 2026-05-07 14:23 | 46.70653 | 8.41440 | 20937 ft | 436 kts | 176° |
| 2026-05-07 14:24 | 46.67616 | 8.41844 | 19929 ft | 439 kts | 176° |
| 2026-05-07 14:24 | 46.64596 | 8.42249 | 19229 ft | 433 kts | 176° |
| 2026-05-07 14:24 | 46.61612 | 8.42652 | 18531 ft | 428 kts | 176° |
| 2026-05-07 14:24 | 46.58661 | 8.43048 | 17793 ft | 424 kts | 176° |
| 2026-05-07 14:25 | 46.55747 | 8.43438 | 17155 ft | 418 kts | 176° |
| 2026-05-07 14:25 | 46.52865 | 8.43824 | 16977 ft | 415 kts | 176° |
| 2026-05-07 14:25 | 46.49989 | 8.44210 | 17002 ft | 416 kts | 176° |
| 2026-05-07 14:25 | 46.47104 | 8.44594 | 16997 ft | 416 kts | 176° |
| 2026-05-07 14:26 | 46.44218 | 8.44978 | 16999 ft | 416 kts | 176° |
| 2026-05-07 14:26 | 46.41333 | 8.45360 | 17000 ft | 416 kts | 176° |
| 2026-05-07 14:26 | 46.38446 | 8.45744 | 16999 ft | 417 kts | 176° |
| 2026-05-07 14:26 | 46.35557 | 8.46128 | 16998 ft | 417 kts | 176° |
| 2026-05-07 14:27 | 46.32670 | 8.46513 | 16989 ft | 417 kts | 176° |
| 2026-05-07 14:27 | 46.29780 | 8.46896 | 16991 ft | 417 kts | 176° |
| 2026-05-07 14:27 | 46.26924 | 8.47275 | 16984 ft | 404 kts | 176° |
| 2026-05-07 14:27 | 46.24197 | 8.47650 | 16980 ft | 384 kts | 176° |
| 2026-05-07 14:28 | 46.21608 | 8.48023 | 16986 ft | 365 kts | 176° |
| 2026-05-07 14:28 | 46.19141 | 8.48384 | 16985 ft | 348 kts | 176° |
| 2026-05-07 14:28 | 46.16785 | 8.48730 | 16986 ft | 333 kts | 176° |
| 2026-05-07 14:28 | 46.14401 | 8.49074 | 16990 ft | 357 kts | 176° |
| 2026-05-07 14:29 | 46.11844 | 8.49523 | 16987 ft | 383 kts | 171° |
| 2026-05-07 14:29 | 46.09195 | 8.50510 | 16985 ft | 403 kts | 162° |
| 2026-05-07 14:29 | 46.06626 | 8.51896 | 16980 ft | 385 kts | 161° |
| 2026-05-07 14:29 | 46.04181 | 8.53231 | 16980 ft | 367 kts | 161° |
| 2026-05-07 14:30 | 46.01850 | 8.54499 | 16983 ft | 349 kts | 161° |
| 2026-05-07 14:30 | 45.99632 | 8.55697 | 16985 ft | 334 kts | 161° |
| 2026-05-07 14:30 | 45.97480 | 8.56852 | 16984 ft | 327 kts | 162° |
| 2026-05-07 14:30 | 45.95348 | 8.57990 | 16984 ft | 326 kts | 162° |
| 2026-05-07 14:31 | 45.93217 | 8.59121 | 16905 ft | 327 kts | 162° |
| 2026-05-07 14:31 | 45.91070 | 8.60110 | 16639 ft | 322 kts | 171° |
| 2026-05-07 14:31 | 45.89606 | 8.60408 | 16472 ft | 319 kts | 179° |
| 2026-05-07 14:31 | 45.87262 | 8.60420 | 15716 ft | 360 kts | 182° |
| 2026-05-07 14:32 | 45.84691 | 8.60363 | 14740 ft | 377 kts | 182° |
| 2026-05-07 14:32 | 45.81231 | 8.60279 | 14256 ft | 367 kts | 183° |
| 2026-05-07 14:32 | 45.78731 | 8.60220 | 14140 ft | 353 kts | 183° |
| 2026-05-07 14:32 | 45.76317 | 8.60164 | 14015 ft | 340 kts | 183° |
| 2026-05-07 14:33 | 45.73991 | 8.60111 | 13895 ft | 329 kts | 183° |
| 2026-05-07 14:33 | 45.72460 | 8.60077 | 13811 ft | 322 kts | 183° |
| 2026-05-07 14:33 | 45.70289 | 8.60026 | 13676 ft | 312 kts | 183° |
| 2026-05-07 14:33 | 45.68118 | 8.59974 | 13537 ft | 303 kts | 183° |
| 2026-05-07 14:34 | 45.66047 | 8.59923 | 13402 ft | 294 kts | 183° |
| 2026-05-07 14:34 | 45.64028 | 8.59876 | 13245 ft | 286 kts | 184° |
| 2026-05-07 14:34 | 45.62079 | 8.59830 | 12993 ft | 283 kts | 184° |
| 2026-05-07 14:34 | 45.60082 | 8.59780 | 12665 ft | 282 kts | 184° |
| 2026-05-07 14:35 | 45.58125 | 8.59760 | 12352 ft | 282 kts | 178° |
| 2026-05-07 14:35 | 45.56185 | 8.60200 | 12051 ft | 283 kts | 171° |
| 2026-05-07 14:35 | 45.54282 | 8.60729 | 11815 ft | 282 kts | 171° |
| 2026-05-07 14:35 | 45.52362 | 8.61263 | 11550 ft | 280 kts | 171° |
| 2026-05-07 14:36 | 45.50450 | 8.61794 | 11246 ft | 279 kts | 171° |
| 2026-05-07 14:36 | 45.48548 | 8.62322 | 10944 ft | 278 kts | 171° |
| 2026-05-07 14:36 | 45.46653 | 8.62847 | 10573 ft | 279 kts | 171° |
| 2026-05-07 14:36 | 45.44735 | 8.63377 | 10152 ft | 282 kts | 171° |
| 2026-05-07 14:37 | 45.42815 | 8.63908 | 9835 ft | 281 kts | 171° |
| 2026-05-07 14:37 | 45.39003 | 8.64963 | 9118 ft | 277 kts | 170° |
| 2026-05-07 14:37 | 45.37114 | 8.65488 | 8779 ft | 276 kts | 170° |
| 2026-05-07 14:38 | 45.35227 | 8.66009 | 8339 ft | 280 kts | 170° |
| 2026-05-07 14:38 | 45.33296 | 8.66538 | 7884 ft | 284 kts | 170° |
| 2026-05-07 14:38 | 45.31380 | 8.67230 | 7432 ft | 285 kts | 156° |
| 2026-05-07 14:38 | 45.29782 | 8.68869 | 6992 ft | 286 kts | 135° |
| 2026-05-07 14:39 | 45.28732 | 8.71235 | 6546 ft | 286 kts | 108° |
| 2026-05-07 14:39 | 45.28544 | 8.74015 | 6095 ft | 285 kts | 81° |
| 2026-05-07 14:39 | 45.29258 | 8.76608 | 5632 ft | 284 kts | 54° |
| 2026-05-07 14:39 | 45.30656 | 8.78560 | 5180 ft | 282 kts | 33° |
| 2026-05-07 14:40 | 45.32412 | 8.79774 | 4728 ft | 281 kts | 17° |
| 2026-05-07 14:40 | 45.34320 | 8.80284 | 4272 ft | 279 kts | 7° |
| 2026-05-07 14:40 | 45.36231 | 8.80529 | 4025 ft | 269 kts | 359° |
| 2026-05-07 14:40 | 45.38029 | 8.80265 | 4027 ft | 251 kts | 349° |
| 2026-05-07 14:41 | 45.39690 | 8.79788 | 4026 ft | 239 kts | 348° |
| 2026-05-07 14:41 | 45.41314 | 8.79322 | 4035 ft | 238 kts | 348° |
| 2026-05-07 14:41 | 45.42915 | 8.78880 | 4034 ft | 237 kts | 349° |
| 2026-05-07 14:41 | 45.44560 | 8.78430 | 3984 ft | 238 kts | 349° |
| 2026-05-07 14:42 | 45.46156 | 8.77993 | 3757 ft | 236 kts | 349° |
| 2026-05-07 14:42 | 45.47767 | 8.77550 | 3466 ft | 235 kts | 349° |
| 2026-05-07 14:42 | 45.49370 | 8.77110 | 3160 ft | 234 kts | 349° |
| 2026-05-07 14:42 | 45.50967 | 8.76672 | 2848 ft | 233 kts | 349° |
| 2026-05-07 14:43 | 45.52576 | 8.76229 | 2539 ft | 239 kts | 349° |
| 2026-05-07 14:43 | 45.54210 | 8.75780 | 2212 ft | 238 kts | 349° |
| 2026-05-07 14:43 | 45.55836 | 8.75332 | 1899 ft | 239 kts | 349° |
| 2026-05-07 14:43 | 45.57469 | 8.74882 | 1566 ft | 238 kts | 349° |
| 2026-05-07 14:44 | 45.59097 | 8.74434 | 1244 ft | 239 kts | 348° |
| 2026-05-07 14:44 | 45.60767 | 8.73973 | 918 ft | 245 kts | 348° |
| 2026-05-07 14:44 | 45.62310 | 8.73547 | 779 ft | 203 kts | 348° |
| 2026-05-07 14:44 | 45.63434 | 8.73236 | 740 ft | 96 kts | 349° |
| 2026-05-07 14:45 | 45.63731 | 8.73139 | 742 ft | 21 kts | 330° |
| 2026-05-07 14:45 | 45.63789 | 8.72967 | 741 ft | 20 kts | 304° |
| 2026-05-07 14:45 | 45.63856 | 8.72819 | 741 ft | 14 kts | 295° |
| 2026-05-07 14:45 | 45.63902 | 8.72722 | 741 ft | 11 kts | 307° |
| 2026-05-07 14:46 | 45.63929 | 8.72641 | 741 ft | 8 kts | 277° |
| 2026-05-07 14:46 | 45.63942 | 8.72549 | 740 ft | 17 kts | 288° |
| 2026-05-07 14:46 | 45.63929 | 8.72342 | 741 ft | 3 kts | 264° |
| 2026-05-07 14:46 | 45.63922 | 8.72252 | 740 ft | 18 kts | 262° |
| 2026-05-07 14:47 | 45.63909 | 8.71971 | 741 ft | 23 kts | 261° |
| 2026-05-07 14:47 | 45.63870 | 8.71839 | 741 ft | 19 kts | 236° |
| 2026-05-07 14:47 | 45.63719 | 8.71840 | 741 ft | 28 kts | 165° |
| 2026-05-07 14:47 | 45.63570 | 8.71886 | 741 ft | 19 kts | 167° |
| 2026-05-07 14:48 | 45.63470 | 8.71918 | 741 ft | 15 kts | 167° |
| 2026-05-07 14:48 | 45.63362 | 8.71944 | 741 ft | 17 kts | 170° |
| 2026-05-07 14:48 | 45.63242 | 8.71978 | 741 ft | 19 kts | 169° |
| 2026-05-07 14:48 | 45.63112 | 8.72016 | 741 ft | 18 kts | 168° |
| 2026-05-07 14:49 | 45.63005 | 8.72006 | 741 ft | 15 kts | 228° |
| 2026-05-07 14:49 | 45.62983 | 8.71882 | 740 ft | 11 kts | 256° |
| 2026-05-07 14:49 | 45.62972 | 8.71783 | 739 ft | 4 kts | 262° |
| 2026-05-07 14:49 | 45.62970 | 8.71772 | 739 ft | 6 kts | 257° |
| 2026-05-07 14:50 | 45.62935 | 8.71751 | 741 ft | 5 kts | 172° |
| 2026-05-07 14:50 | 45.62899 | 8.71761 | 741 ft | 7 kts | 169° |
| 2026-05-07 14:50 | 45.62858 | 8.71773 | 741 ft | 5 kts | 169° |
| 2026-05-07 14:50 | 45.62835 | 8.71764 | 741 ft | 2 kts | 244° |
| 2026-05-07 14:51 | 45.62832 | 8.71744 | 740 ft | 2 kts | 259° |
| 2026-05-07 14:51 | 45.62830 | 8.71728 | 741 ft | 4 kts | 259° |
| 2026-05-07 14:51 | 45.62826 | 8.71697 | 740 ft | 0 kts | 259° |
| 2026-05-07 14:51 | 45.62822 | 8.71668 | 741 ft | 3 kts | 258° |
| 2026-05-07 14:52 | 45.62821 | 8.71664 | 741 ft | 0 kts | 256° |